Time;durP1;ratioP1;P1;durP2;ratioP2;P2;SDS_P1;SDS_P2;PMS_P1;PMS_P2;Temp;Humidity;BMP_temperature;BMP_pressure;BME280_temperature;BME280_humidity;BME280_pressure;Samples;Min_cycle;Max_cycle;Signal;HPM_P1;HPM_P2
2021/01/31 00:01:52;;;;;;;23.88;10.68;;;10.20;96.70;;;;;;5019228;28;20072;-74
2021/01/31 00:04:21;;;;;;;20.27;8.63;;;10.20;96.70;;;;;;5018590;28;20042;-74
2021/01/31 00:06:48;;;;;;;8.98;3.67;;;10.20;96.70;;;;;;5021029;28;20065;-74
2021/01/31 00:09:16;;;;;;;8.07;3.45;;;10.30;96.70;;;;;;5016997;28;20137;-74
2021/01/31 00:11:43;;;;;;;7.55;2.30;;;10.30;96.70;;;;;;5016695;28;20407;-74
2021/01/31 00:14:11;;;;;;;6.80;2.15;;;10.40;96.70;;;;;;4999567;28;20080;-74
2021/01/31 00:16:38;;;;;;;7.68;2.58;;;10.40;96.70;;;;;;5021885;28;20053;-74
2021/01/31 00:19:05;;;;;;;5.63;2.17;;;10.50;96.70;;;;;;5035633;28;20069;-74
2021/01/31 00:21:33;;;;;;;4.90;2.25;;;10.50;96.70;;;;;;5017649;28;20052;-74
2021/01/31 00:24:01;;;;;;;5.80;1.90;;;10.60;96.70;;;;;;5018486;28;20039;-74
2021/01/31 00:26:28;;;;;;;3.60;1.20;;;10.60;96.70;;;;;;5005098;28;20057;-74
2021/01/31 00:28:55;;;;;;;4.63;1.30;;;10.60;96.70;;;;;;5017336;28;20044;-74
2021/01/31 00:31:24;;;;;;;4.78;1.23;;;10.60;96.70;;;;;;5018953;28;20401;-74
2021/01/31 00:33:52;;;;;;;5.88;1.73;;;10.70;96.70;;;;;;5017791;28;20042;-74
2021/01/31 00:36:19;;;;;;;5.03;1.80;;;10.70;96.70;;;;;;5019354;28;20049;-74
2021/01/31 00:38:48;;;;;;;5.55;2.05;;;10.70;96.70;;;;;;5015832;28;20482;-74
2021/01/31 00:41:15;;;;;;;3.35;2.10;;;10.70;96.70;;;;;;5021380;28;20041;-74
2021/01/31 00:43:43;;;;;;;5.75;1.95;;;10.70;96.70;;;;;;5020084;28;20114;-73
2021/01/31 00:46:10;;;;;;;5.18;1.83;;;10.70;96.70;;;;;;5018113;28;20507;-74
2021/01/31 00:48:38;;;;;;;7.18;2.03;;;10.70;96.70;;;;;;4999516;28;20141;-74
2021/01/31 00:51:05;;;;;;;4.63;2.05;;;10.70;96.70;;;;;;5021408;28;20135;-74
2021/01/31 00:53:32;;;;;;;4.38;1.65;;;10.70;96.70;;;;;;5017935;28;20041;-74
2021/01/31 00:56:10;;;;;;;6.32;1.60;;;10.70;96.70;;;;;;5021600;28;20103;-74
2021/01/31 00:58:44;;;;;;;5.70;1.35;;;10.70;96.70;;;;;;5016045;28;20127;-74
2021/01/31 01:01:12;;;;;;;3.83;1.17;;;10.70;96.70;;;;;;5004951;28;20037;-74
2021/01/31 01:03:40;;;;;;;3.83;1.50;;;10.80;96.70;;;;;;5013772;28;20503;-74
2021/01/31 01:06:09;;;;;;;4.88;1.02;;;10.70;96.70;;;;;;5018391;28;20049;-74
2021/01/31 01:08:37;;;;;;;2.90;0.73;;;10.70;96.70;;;;;;5012528;28;20049;-74
2021/01/31 01:11:04;;;;;;;3.80;1.10;;;10.70;96.70;;;;;;5016900;28;20049;-75
2021/01/31 01:13:32;;;;;;;3.83;1.10;;;10.60;96.70;;;;;;5016650;28;20418;-74
2021/01/31 01:16:00;;;;;;;4.38;1.45;;;10.70;96.70;;;;;;5000693;28;20049;-74
2021/01/31 01:18:27;;;;;;;5.70;1.10;;;10.70;96.70;;;;;;5014862;28;20495;-74
2021/01/31 01:20:55;;;;;;;4.35;1.10;;;10.70;96.70;;;;;;5017650;28;20168;-74
2021/01/31 01:23:22;;;;;;;3.70;1.02;;;10.70;96.70;;;;;;5034846;28;20072;-75
2021/01/31 01:25:49;;;;;;;4.22;1.23;;;10.70;96.70;;;;;;5017968;28;20579;-74
2021/01/31 01:28:17;;;;;;;2.40;1.20;;;10.70;96.70;;;;;;5018745;28;20514;-74
2021/01/31 01:30:46;;;;;;;4.15;1.00;;;10.80;96.70;;;;;;5018517;28;20115;-75
2021/01/31 01:33:13;;;;;;;2.78;0.80;;;10.80;96.70;;;;;;5022150;28;20047;-75
2021/01/31 01:35:41;;;;;;;4.22;1.00;;;10.80;96.70;;;;;;5017599;28;20049;-74
2021/01/31 01:38:08;;;;;;;6.05;1.40;;;10.80;96.70;;;;;;5020325;28;20155;-74
2021/01/31 01:40:38;;;;;;;3.97;1.23;;;10.80;96.70;;;;;;5020218;28;20048;-74
2021/01/31 01:43:12;;;;;;;5.28;1.00;;;10.80;96.70;;;;;;5018334;28;20096;-74
2021/01/31 01:45:40;;;;;;;3.85;1.00;;;10.80;96.70;;;;;;5017313;28;20484;-70
2021/01/31 01:48:15;;;;;;;3.10;1.00;;;10.80;96.70;;;;;;5020135;28;20518;-75
2021/01/31 01:50:48;;;;;;;2.15;0.70;;;10.70;96.70;;;;;;4991603;28;20045;-74
2021/01/31 01:53:18;;;;;;;2.92;0.85;;;10.60;96.70;;;;;;5017620;28;20045;-75
2021/01/31 01:55:54;;;;;;;2.35;0.75;;;10.60;96.70;;;;;;5000128;28;20074;-75
2021/01/31 01:58:22;;;;;;;1.92;0.50;;;10.50;96.70;;;;;;5016591;28;20124;-74
2021/01/31 02:00:50;;;;;;;2.30;0.38;;;10.50;96.70;;;;;;5015809;28;20126;-75
2021/01/31 02:03:22;;;;;;;3.28;0.65;;;10.50;96.70;;;;;;5019471;28;20046;-75
2021/01/31 02:05:58;;;;;;;1.67;0.40;;;10.50;96.70;;;;;;5016272;28;20451;-75
2021/01/31 02:08:25;;;;;;;2.10;0.52;;;10.50;96.70;;;;;;5018148;28;20620;-75
2021/01/31 02:10:52;;;;;;;1.40;0.38;;;10.50;96.70;;;;;;5016670;28;20484;-74
2021/01/31 02:13:20;;;;;;;2.13;0.50;;;10.50;96.70;;;;;;5018507;28;20046;-74
2021/01/31 02:15:48;;;;;;;2.63;0.40;;;10.50;96.70;;;;;;4998956;28;20051;-74
2021/01/31 02:18:28;;;;;;;2.40;0.50;;;10.40;96.70;;;;;;5014143;28;20191;-75
2021/01/31 02:21:11;;;;;;;1.63;0.30;;;10.50;96.70;;;;;;5019655;28;20456;-74
2021/01/31 02:24:01;;;;;;;2.55;0.65;;;10.40;96.70;;;;;;5000698;28;20745;-75
2021/01/31 02:26:57;;;;;;;4.25;1.13;;;10.40;96.70;;;;;;5017320;28;20554;-74
2021/01/31 02:29:54;;;;;;;1.67;0.60;;;10.30;96.70;;;;;;5020548;28;20507;-74
2021/01/31 02:32:42;;;;;;;1.05;0.30;;;10.30;96.70;;;;;;5026425;28;20037;-74
2021/01/31 02:35:14;;;;;;;3.00;0.50;;;10.30;96.70;;;;;;5021909;28;20092;-74
2021/01/31 02:37:50;;;;;;;1.48;0.50;;;10.30;96.70;;;;;;5022649;28;20501;-73
2021/01/31 02:40:21;;;;;;;;;;;10.30;96.70;;;;;;5018918;28;20048;-75
2021/01/31 02:42:52;;;;;;;2.00;0.47;;;10.20;96.70;;;;;;5020514;28;19928;-74
2021/01/31 02:45:23;;;;;;;1.48;0.30;;;10.20;96.70;;;;;;5018386;28;20076;-74
2021/01/31 02:48:02;;;;;;;1.13;0.40;;;10.20;96.70;;;;;;5019922;28;20049;-74
2021/01/31 02:50:35;;;;;;;1.38;0.38;;;10.20;96.70;;;;;;5021522;28;20470;-75
2021/01/31 02:53:06;;;;;;;2.60;0.40;;;10.30;96.70;;;;;;5019241;28;20057;-74
2021/01/31 02:55:39;;;;;;;1.98;0.38;;;10.30;96.70;;;;;;5019024;28;20061;-75
2021/01/31 02:58:10;;;;;;;1.38;0.55;;;10.30;96.70;;;;;;5018619;28;20153;-75
2021/01/31 03:00:44;;;;;;;3.33;1.35;;;10.30;96.70;;;;;;5024998;28;20164;-74
2021/01/31 03:03:16;;;;;;;1.35;0.50;;;10.30;96.70;;;;;;5020312;28;20523;-75
2021/01/31 03:05:47;;;;;;;2.15;0.50;;;10.30;96.70;;;;;;5018413;28;20571;-74
2021/01/31 03:08:19;;;;;;;2.10;0.40;;;10.30;96.70;;;;;;5019642;28;20149;-74
2021/01/31 03:10:51;;;;;;;0.73;0.32;;;10.30;96.70;;;;;;5021128;28;20044;-75
2021/01/31 03:13:27;;;;;;;2.28;0.75;;;10.30;96.70;;;;;;5019726;28;20442;-74
2021/01/31 03:16:01;;;;;;;1.73;0.60;;;10.30;96.70;;;;;;5013064;28;20168;-74
2021/01/31 03:18:34;;;;;;;2.58;0.70;;;10.20;96.70;;;;;;5015851;28;20125;-74
2021/01/31 03:21:06;;;;;;;1.42;0.55;;;10.20;96.70;;;;;;5003067;28;20053;-74
2021/01/31 03:23:37;;;;;;;1.92;0.52;;;10.20;96.70;;;;;;5005154;28;20578;-74
2021/01/31 03:26:14;;;;;;;2.60;0.60;;;10.20;96.70;;;;;;5019605;28;20530;-75
2021/01/31 03:28:41;;;;;;;1.05;0.30;;;10.20;96.70;;;;;;5021632;28;20046;-74
2021/01/31 03:31:10;;;;;;;1.30;0.32;;;10.10;96.70;;;;;;5018824;28;20061;-74
2021/01/31 03:33:43;;;;;;;1.38;0.38;;;10.10;96.70;;;;;;5020078;28;20048;-75
2021/01/31 03:36:12;;;;;;;0.85;0.40;;;10.10;96.70;;;;;;5003798;28;20046;-74
2021/01/31 03:38:44;;;;;;;2.00;0.40;;;10.10;96.70;;;;;;5019634;28;20402;-74
2021/01/31 03:41:14;;;;;;;2.35;0.32;;;10.10;96.70;;;;;;5021261;28;20503;-75
2021/01/31 03:43:42;;;;;;;1.60;0.50;;;10.10;96.70;;;;;;5024350;28;20049;-75
2021/01/31 03:46:14;;;;;;;2.75;0.50;;;10.10;96.70;;;;;;5017714;28;20048;-75
2021/01/31 03:48:46;;;;;;;1.77;0.40;;;10.10;96.70;;;;;;5018016;28;20400;-74
2021/01/31 03:51:15;;;;;;;2.58;0.40;;;10.10;96.70;;;;;;5020676;28;20041;-74
2021/01/31 03:53:42;;;;;;;1.27;0.30;;;10.10;96.70;;;;;;5020692;28;20099;-74
2021/01/31 03:56:12;;;;;;;4.47;0.63;;;10.00;96.70;;;;;;5014398;28;20140;-74
2021/01/31 03:58:43;;;;;;;1.50;0.47;;;10.00;96.70;;;;;;5020256;28;20056;-74
2021/01/31 04:01:12;;;;;;;2.20;0.50;;;9.90;96.70;;;;;;5021044;28;20073;-74
2021/01/31 04:03:45;;;;;;;2.10;0.40;;;9.90;96.70;;;;;;5023024;28;20567;-75
2021/01/31 04:06:19;;;;;;;3.80;0.77;;;9.90;96.70;;;;;;5022419;28;20513;-74
2021/01/31 04:08:52;;;;;;;2.17;0.30;;;9.90;96.70;;;;;;5019502;28;20573;-74
2021/01/31 04:11:35;;;;;;;1.63;0.20;;;10.00;96.70;;;;;;5019574;28;20427;-74
2021/01/31 04:14:09;;;;;;;1.90;0.40;;;9.90;96.70;;;;;;5018372;28;20041;-74
2021/01/31 04:16:42;;;;;;;2.22;0.77;;;9.90;96.70;;;;;;5017881;28;20523;-74
2021/01/31 04:19:09;;;;;;;3.75;0.73;;;9.90;96.70;;;;;;5017271;28;20041;-74
2021/01/31 04:21:37;;;;;;;3.80;0.50;;;9.90;96.70;;;;;;5017376;28;20037;-74
2021/01/31 04:24:05;;;;;;;3.42;0.85;;;9.90;96.70;;;;;;5017958;28;20144;-74
2021/01/31 04:26:33;;;;;;;2.38;0.40;;;9.90;96.70;;;;;;5019898;28;20624;-75
2021/01/31 04:29:00;;;;;;;3.42;0.40;;;10.00;96.70;;;;;;5002517;28;20518;-74
2021/01/31 04:31:27;;;;;;;2.17;0.50;;;10.10;96.70;;;;;;4998458;28;20511;-74
2021/01/31 04:33:55;;;;;;;2.33;0.60;;;10.00;96.70;;;;;;5019266;28;20059;-74
2021/01/31 04:36:23;;;;;;;3.30;0.50;;;10.00;96.70;;;;;;5021851;28;20695;-74
2021/01/31 04:38:52;;;;;;;2.72;0.47;;;10.10;96.70;;;;;;5013222;28;20399;-75
2021/01/31 04:41:20;;;;;;;2.53;0.40;;;10.10;96.70;;;;;;5015208;28;20041;-74
2021/01/31 04:43:49;;;;;;;2.53;0.60;;;10.10;96.70;;;;;;5017527;28;20041;-74
2021/01/31 04:46:20;;;;;;;2.95;0.50;;;10.10;96.70;;;;;;5021404;28;20041;-74
2021/01/31 04:48:59;;;;;;;2.17;0.70;;;10.00;96.70;;;;;;5018946;28;20041;-74
2021/01/31 04:51:36;;;;;;;2.10;0.55;;;10.00;96.70;;;;;;5023455;28;20096;-74
2021/01/31 04:54:20;;;;;;;1.80;0.45;;;10.10;96.70;;;;;;5030829;28;20045;-74
2021/01/31 04:57:00;;;;;;;3.78;0.50;;;10.10;96.70;;;;;;5000063;28;20053;-74
2021/01/31 04:59:31;;;;;;;2.55;0.60;;;10.20;96.70;;;;;;5020211;28;20037;-74
2021/01/31 05:02:09;;;;;;;2.70;0.50;;;10.20;96.70;;;;;;5018855;28;20143;-74
2021/01/31 05:04:49;;;;;;;2.50;0.47;;;10.20;96.70;;;;;;5022977;28;20041;-74
2021/01/31 05:07:19;;;;;;;3.95;0.63;;;10.20;96.70;;;;;;5016295;28;20061;-75
2021/01/31 05:09:48;;;;;;;1.55;0.80;;;10.20;96.70;;;;;;5019192;28;20069;-75
2021/01/31 05:12:22;;;;;;;4.38;0.98;;;10.20;96.70;;;;;;5018485;28;20030;-75
2021/01/31 05:15:02;;;;;;;4.03;0.60;;;10.20;96.70;;;;;;5019412;28;20095;-74
2021/01/31 05:17:30;;;;;;;2.25;0.50;;;10.20;96.70;;;;;;5017562;28;20080;-74
2021/01/31 05:19:58;;;;;;;2.35;0.50;;;10.20;96.70;;;;;;5016335;28;20119;-74
2021/01/31 05:22:29;;;;;;;3.00;0.60;;;10.20;96.70;;;;;;5013972;28;20068;-74
2021/01/31 05:24:57;;;;;;;4.88;1.00;;;10.20;96.70;;;;;;5017459;28;20404;-74
2021/01/31 05:27:31;;;;;;;3.75;0.82;;;10.20;96.70;;;;;;5016351;28;20063;-74
2021/01/31 05:29:59;;;;;;;3.58;1.00;;;10.20;96.70;;;;;;5002782;28;20496;-74
2021/01/31 05:32:26;;;;;;;2.22;0.40;;;10.20;96.70;;;;;;5019134;28;20041;-74
2021/01/31 05:34:55;;;;;;;1.70;0.50;;;10.20;96.70;;;;;;5021037;28;20897;-74
2021/01/31 05:37:25;;;;;;;3.00;0.65;;;10.20;96.70;;;;;;5017546;28;20051;-74
2021/01/31 05:39:57;;;;;;;2.80;0.50;;;10.20;96.70;;;;;;5022256;28;20092;-74
2021/01/31 05:42:27;;;;;;;2.20;0.55;;;10.20;96.70;;;;;;5013629;28;20050;-74
2021/01/31 05:45:01;;;;;;;2.22;0.70;;;10.20;96.70;;;;;;4997750;28;20048;-74
2021/01/31 05:47:34;;;;;;;2.78;0.70;;;10.20;96.70;;;;;;5018580;28;20160;-75
2021/01/31 05:50:30;;;;;;;2.67;0.50;;;10.20;96.70;;;;;;5022581;28;20061;-75
2021/01/31 05:52:58;;;;;;;1.35;0.60;;;10.20;96.70;;;;;;5018178;28;20056;-74
2021/01/31 05:55:29;;;;;;;3.22;0.93;;;10.20;96.70;;;;;;5015944;28;20033;-75
2021/01/31 05:58:13;;;;;;;4.07;0.80;;;10.20;96.70;;;;;;5002262;28;20050;-75
2021/01/31 06:00:41;;;;;;;3.40;1.40;;;10.20;96.70;;;;;;5016732;28;20140;-74
2021/01/31 06:03:10;;;;;;;3.45;0.93;;;10.20;96.70;;;;;;5018144;28;20037;-74
2021/01/31 06:05:38;;;;;;;5.45;1.08;;;10.10;96.70;;;;;;5017059;28;20088;-74
2021/01/31 06:08:08;;;;;;;1.83;0.63;;;10.10;96.70;;;;;;5024747;28;20346;-73
2021/01/31 06:10:39;;;;;;;4.35;1.08;;;10.00;96.70;;;;;;5020310;28;20522;-74
2021/01/31 06:13:11;;;;;;;2.55;1.00;;;10.00;96.70;;;;;;5025504;28;20507;-74
2021/01/31 06:15:43;;;;;;;4.03;1.10;;;10.00;96.70;;;;;;5021298;28;20054;-74
2021/01/31 06:18:17;;;;;;;2.05;0.70;;;10.00;96.70;;;;;;5020098;28;20117;-74
2021/01/31 06:20:46;;;;;;;2.53;0.77;;;10.00;96.70;;;;;;5020176;28;20127;-74
2021/01/31 06:23:33;;;;;;;6.32;0.98;;;10.10;96.70;;;;;;5004254;28;20052;-75
2021/01/31 06:26:03;;;;;;;3.13;0.73;;;10.10;96.70;;;;;;5023790;28;20724;-74
2021/01/31 06:28:42;;;;;;;5.20;1.10;;;10.10;96.70;;;;;;5018895;28;20413;-74
2021/01/31 06:31:20;;;;;;;2.72;0.65;;;10.10;96.70;;;;;;5020085;28;20049;-74
2021/01/31 06:33:47;;;;;;;5.13;0.85;;;10.10;96.70;;;;;;5020856;28;20037;-74
2021/01/31 06:36:24;;;;;;;3.17;0.85;;;10.10;96.70;;;;;;5023795;28;20500;-74
2021/01/31 06:38:54;;;;;;;;;;;10.10;96.70;;;;;;5020627;28;20041;-74
2021/01/31 06:41:37;;;;;;;2.92;0.98;;;10.10;96.70;;;;;;5021572;28;19979;-74
2021/01/31 06:44:12;;;;;;;6.40;1.20;;;10.10;96.70;;;;;;5017345;28;20084;-73
2021/01/31 06:46:46;;;;;;;8.60;1.45;;;10.10;96.70;;;;;;5018399;28;20570;-74
2021/01/31 06:49:29;;;;;;;5.63;1.13;;;10.10;96.70;;;;;;5004121;28;20049;-74
2021/01/31 06:52:09;;;;;;;3.85;1.15;;;10.10;96.70;;;;;;5021255;28;20499;-74
2021/01/31 06:54:59;;;;;;;4.60;0.80;;;10.10;96.70;;;;;;5020824;28;20037;-74
2021/01/31 06:57:56;;;;;;;3.58;0.88;;;10.10;96.70;;;;;;5021708;28;20053;-74
2021/01/31 07:00:47;;;;;;;5.25;0.77;;;10.10;96.70;;;;;;5005832;28;20041;-74
2021/01/31 07:03:28;;;;;;;3.80;0.82;;;10.10;96.70;;;;;;5023316;28;20055;-73
2021/01/31 07:06:06;;;;;;;5.28;0.75;;;10.20;96.70;;;;;;5021507;28;20044;-74
2021/01/31 07:08:45;;;;;;;5.03;0.80;;;10.20;96.70;;;;;;5015051;28;20050;-74
2021/01/31 07:11:25;;;;;;;4.88;0.88;;;10.20;96.70;;;;;;5008184;28;20060;-74
2021/01/31 07:14:01;;;;;;;4.47;0.93;;;10.20;96.70;;;;;;5018718;28;20045;-74
2021/01/31 07:16:37;;;;;;;4.63;0.95;;;10.20;96.70;;;;;;5017391;28;20132;-74
2021/01/31 07:19:08;;;;;;;3.80;0.82;;;10.20;96.70;;;;;;5016288;28;20468;-74
2021/01/31 07:21:40;;;;;;;4.72;0.82;;;10.20;96.70;;;;;;5020545;28;20475;-74
2021/01/31 07:24:20;;;;;;;5.72;1.00;;;10.20;96.70;;;;;;5019720;28;20044;-74
2021/01/31 07:26:53;;;;;;;5.50;1.10;;;10.30;96.70;;;;;;5015686;28;20038;-74
2021/01/31 07:29:26;;;;;;;2.65;0.90;;;10.30;96.70;;;;;;5019462;28;20069;-74
2021/01/31 07:31:54;;;;;;;4.18;0.95;;;10.30;96.70;;;;;;5017950;28;20136;-74
2021/01/31 07:34:26;;;;;;;3.38;0.80;;;10.30;96.70;;;;;;5020712;28;20095;-74
2021/01/31 07:37:05;;;;;;;4.40;0.77;;;10.30;96.70;;;;;;5015809;28;20143;-74
2021/01/31 07:39:41;;;;;;;4.25;0.80;;;10.30;96.70;;;;;;5040163;28;20485;-74
2021/01/31 07:42:10;;;;;;;2.85;0.63;;;10.30;96.70;;;;;;5019195;28;20430;-74
2021/01/31 07:44:39;;;;;;;4.25;0.65;;;10.40;96.70;;;;;;5021966;28;20205;-74
2021/01/31 07:47:08;;;;;;;5.55;0.80;;;10.40;96.70;;;;;;5014265;28;20695;-74
2021/01/31 07:50:04;;;;;;;2.45;0.55;;;10.40;96.70;;;;;;5021391;28;20056;-74
2021/01/31 07:52:46;;;;;;;2.50;0.80;;;10.40;96.70;;;;;;5024167;28;20148;-74
2021/01/31 07:55:19;;;;;;;2.13;0.50;;;10.40;96.70;;;;;;5021741;28;20037;-74
2021/01/31 07:58:03;;;;;;;2.63;0.45;;;10.40;96.70;;;;;;5020970;28;20045;-74
2021/01/31 08:00:36;;;;;;;2.38;0.55;;;10.40;96.70;;;;;;5012198;28;20045;-74
2021/01/31 08:03:19;;;;;;;2.55;0.75;;;10.40;96.70;;;;;;5020004;28;20530;-74
2021/01/31 08:05:53;;;;;;;4.60;0.80;;;10.30;96.70;;;;;;5018104;28;20127;-74
2021/01/31 08:08:36;;;;;;;2.35;0.50;;;10.30;96.70;;;;;;5020326;28;20054;-74
2021/01/31 08:11:04;;;;;;;2.42;0.68;;;10.40;96.70;;;;;;5015529;28;20037;-74
2021/01/31 08:13:37;;;;;;;1.58;0.50;;;10.30;96.70;;;;;;5019760;28;20353;-74
2021/01/31 08:16:34;;;;;;;2.97;0.60;;;10.40;96.70;;;;;;4998036;28;21439;-74
2021/01/31 08:19:10;;;;;;;3.83;0.57;;;10.40;96.70;;;;;;5019891;28;20042;-74
2021/01/31 08:21:53;;;;;;;1.35;0.45;;;10.40;96.70;;;;;;5020135;28;20403;-74
2021/01/31 08:24:50;;;;;;;0.75;0.30;;;10.30;96.70;;;;;;5013404;28;20515;-75
2021/01/31 08:27:37;;;;;;;0.73;0.30;;;10.20;96.70;;;;;;5015946;28;20045;-74
2021/01/31 08:30:15;;;;;;;1.00;0.20;;;10.20;96.70;;;;;;4999803;28;20064;-74
2021/01/31 08:33:04;;;;;;;0.93;0.40;;;10.10;96.70;;;;;;5016124;28;20397;-74
2021/01/31 08:35:36;;;;;;;0.80;0.25;;;10.10;96.70;;;;;;5017470;28;20144;-74
2021/01/31 08:38:13;;;;;;;1.50;0.30;;;10.00;96.70;;;;;;5016938;28;20041;-74
2021/01/31 08:40:48;;;;;;;1.67;0.68;;;10.00;96.70;;;;;;5018240;28;20094;-74
2021/01/31 08:43:27;;;;;;;1.85;0.50;;;10.00;96.70;;;;;;4995231;28;20041;-73
2021/01/31 08:46:04;;;;;;;2.05;0.63;;;9.90;96.70;;;;;;5018576;28;20047;-75
2021/01/31 08:48:32;;;;;;;1.85;0.40;;;9.90;96.70;;;;;;5016448;28;20044;-74
2021/01/31 08:51:06;;;;;;;1.40;0.60;;;10.00;96.70;;;;;;5019874;28;20056;-75
2021/01/31 08:53:34;;;;;;;1.00;0.45;;;10.00;96.70;;;;;;5000085;28;20905;-74
2021/01/31 08:56:20;;;;;;;1.10;0.40;;;10.00;96.70;;;;;;5015697;28;20403;-74
2021/01/31 08:58:48;;;;;;;0.55;0.40;;;10.00;96.70;;;;;;5014728;28;20041;-73
2021/01/31 09:01:16;;;;;;;1.77;0.40;;;10.10;96.70;;;;;;5019869;28;20045;-74
2021/01/31 09:03:45;;;;;;;1.23;0.50;;;10.20;96.70;;;;;;5013028;28;20049;-74
2021/01/31 09:06:14;;;;;;;0.90;0.30;;;10.20;96.70;;;;;;5017207;28;20433;-74
2021/01/31 09:08:43;;;;;;;1.33;0.30;;;10.20;96.70;;;;;;5012799;28;20053;-75
2021/01/31 09:11:15;;;;;;;0.60;0.30;;;10.10;96.70;;;;;;5015635;28;20511;-75
2021/01/31 09:13:46;;;;;;;0.75;0.30;;;10.10;96.70;;;;;;5015512;28;20046;-75
2021/01/31 09:16:19;;;;;;;0.63;0.30;;;10.10;96.70;;;;;;5019208;28;20045;-75
2021/01/31 09:18:47;;;;;;;0.93;0.30;;;10.10;96.70;;;;;;5003208;28;20076;-75
2021/01/31 09:21:28;;;;;;;0.30;0.20;;;10.20;96.70;;;;;;5014680;28;20049;-75
2021/01/31 09:23:59;;;;;;;0.28;0.20;;;10.20;96.70;;;;;;5017410;28;20045;-74
2021/01/31 09:26:28;;;;;;;0.50;0.22;;;10.20;96.70;;;;;;5016030;28;20045;-75
2021/01/31 09:28:58;;;;;;;0.77;0.50;;;10.30;96.70;;;;;;5010835;28;20044;-74
2021/01/31 09:31:28;;;;;;;0.60;0.20;;;10.30;96.70;;;;;;5010986;28;20050;-75
2021/01/31 09:33:59;;;;;;;0.65;0.40;;;10.40;96.70;;;;;;5009377;28;20049;-71
2021/01/31 09:36:30;;;;;;;0.77;0.30;;;10.40;96.70;;;;;;5017726;28;20222;-72
2021/01/31 09:38:59;;;;;;;0.95;0.30;;;10.40;96.70;;;;;;5013278;28;21926;-73
2021/01/31 09:41:29;;;;;;;0.40;0.30;;;10.40;96.70;;;;;;5017270;28;20037;-70
2021/01/31 09:44:00;;;;;;;0.45;0.30;;;10.40;96.70;;;;;;5021299;28;20410;-71
2021/01/31 09:46:29;;;;;;;0.55;0.35;;;10.40;96.70;;;;;;5016984;28;20402;-71
2021/01/31 09:49:03;;;;;;;0.30;0.20;;;10.50;96.70;;;;;;5003634;28;20041;-72
2021/01/31 09:51:34;;;;;;;0.80;0.30;;;10.60;96.70;;;;;;5018489;28;20451;-71
2021/01/31 09:54:18;;;;;;;0.57;0.30;;;10.60;96.70;;;;;;5016705;28;20034;-70
2021/01/31 09:56:53;;;;;;;0.60;0.20;;;10.70;96.70;;;;;;4996551;28;20512;-70
2021/01/31 09:59:28;;;;;;;0.45;0.15;;;10.70;96.70;;;;;;5019147;28;20042;-69
2021/01/31 10:02:05;;;;;;;1.17;0.20;;;10.70;96.70;;;;;;5016361;28;20041;-70
2021/01/31 10:04:38;;;;;;;0.38;0.13;;;10.80;96.70;;;;;;5020944;28;20377;-70
2021/01/31 10:07:14;;;;;;;0.52;0.20;;;10.90;96.70;;;;;;4999665;28;20549;-72
2021/01/31 10:09:50;;;;;;;1.25;0.25;;;11.00;96.70;;;;;;5016654;28;20057;-72
2021/01/31 10:12:27;;;;;;;1.00;0.32;;;11.10;96.70;;;;;;5002133;28;20073;-70
2021/01/31 10:14:58;;;;;;;0.98;0.30;;;11.20;96.70;;;;;;5013131;28;20042;-70
2021/01/31 10:17:38;;;;;;;1.13;0.20;;;11.20;96.70;;;;;;5020212;28;20057;-70
2021/01/31 10:20:27;;;;;;;0.65;0.30;;;11.20;96.70;;;;;;5018631;28;20053;-70
2021/01/31 10:23:02;;;;;;;0.65;0.28;;;11.20;96.70;;;;;;5004247;28;20061;-70
2021/01/31 10:25:29;;;;;;;0.50;0.20;;;11.30;96.70;;;;;;5015913;28;20044;-71
2021/01/31 10:27:59;;;;;;;0.57;0.30;;;11.30;96.70;;;;;;5019277;28;20665;-70
2021/01/31 10:30:39;;;;;;;0.25;0.25;;;11.30;96.70;;;;;;5012693;28;20152;-70
2021/01/31 10:33:08;;;;;;;1.00;0.40;;;11.40;96.70;;;;;;5017233;28;20048;-70
2021/01/31 10:35:37;;;;;;;0.43;0.20;;;11.50;96.70;;;;;;5018060;28;20034;-71
2021/01/31 10:38:27;;;;;;;0.77;0.20;;;11.50;96.70;;;;;;5021632;28;20168;-71
2021/01/31 10:40:55;;;;;;;0.68;0.30;;;11.60;96.70;;;;;;5022629;28;20144;-69
2021/01/31 10:43:24;;;;;;;1.27;0.47;;;11.60;96.70;;;;;;5004751;28;20049;-71
2021/01/31 10:45:51;;;;;;;0.85;0.40;;;11.60;96.70;;;;;;5020098;28;20142;-72
2021/01/31 10:48:19;;;;;;;0.32;0.20;;;11.60;96.70;;;;;;5021628;28;20069;-73
2021/01/31 10:50:46;;;;;;;0.93;0.28;;;11.60;96.70;;;;;;5005466;28;20077;-71
2021/01/31 10:53:13;;;;;;;0.57;0.20;;;11.60;96.70;;;;;;5023314;28;20076;-69
2021/01/31 10:55:42;;;;;;;0.50;0.10;;;11.60;96.70;;;;;;5017218;28;20423;-69
2021/01/31 10:58:10;;;;;;;0.70;0.30;;;11.60;96.70;;;;;;5021355;28;20045;-71
2021/01/31 11:00:39;;;;;;;0.55;0.20;;;11.70;96.70;;;;;;5017149;28;20057;-70
2021/01/31 11:03:06;;;;;;;0.70;0.20;;;11.80;96.70;;;;;;5014024;28;20037;-69
2021/01/31 11:05:34;;;;;;;1.50;0.30;;;11.90;96.70;;;;;;4994813;28;20045;-69
2021/01/31 11:08:02;;;;;;;0.50;0.20;;;11.90;96.70;;;;;;5017690;28;20045;-70
2021/01/31 11:10:30;;;;;;;3.30;1.23;;;12.00;96.70;;;;;;5018186;28;20537;-71
2021/01/31 11:12:57;;;;;;;2.63;1.88;;;12.10;96.70;;;;;;5021288;28;20115;-69
2021/01/31 11:15:27;;;;;;;4.43;2.45;;;12.20;96.70;;;;;;5005654;28;20044;-69
2021/01/31 11:17:55;;;;;;;0.77;0.50;;;12.20;96.70;;;;;;4838357;28;63525;-69
2021/01/31 11:20:23;;;;;;;2.60;1.35;;;12.30;96.70;;;;;;4906821;28;562401;-70
2021/01/31 11:22:51;;;;;;;1.55;0.80;;;12.30;96.70;;;;;;4968772;28;20042;-70
2021/01/31 11:25:18;;;;;;;1.50;0.70;;;12.30;96.70;;;;;;4978931;28;20049;-70
2021/01/31 11:27:45;;;;;;;1.95;0.95;;;12.20;96.70;;;;;;4993849;28;20546;-69
2021/01/31 11:30:14;;;;;;;4.10;1.65;;;12.20;96.70;;;;;;4979326;28;20542;-70
2021/01/31 11:32:44;;;;;;;4.07;2.55;;;12.20;96.70;;;;;;4995361;28;20042;-70
2021/01/31 11:35:11;;;;;;;5.45;2.70;;;12.20;96.70;;;;;;4977776;28;20035;-69
2021/01/31 11:37:39;;;;;;;4.22;2.92;;;12.20;96.70;;;;;;4976364;28;20042;-69
2021/01/31 11:40:09;;;;;;;2.88;1.88;;;12.20;96.70;;;;;;4977788;28;20570;-70
2021/01/31 11:42:37;;;;;;;2.30;1.50;;;12.20;96.70;;;;;;4989896;28;20038;-71
2021/01/31 11:45:07;;;;;;;2.53;1.42;;;12.20;96.70;;;;;;4974452;28;20045;-70
2021/01/31 11:47:35;;;;;;;2.63;1.75;;;12.20;96.70;;;;;;4974735;28;20133;-69
2021/01/31 11:50:06;;;;;;;2.50;1.50;;;12.20;96.70;;;;;;4968149;28;20046;-70
2021/01/31 11:52:33;;;;;;;2.85;1.63;;;12.20;96.70;;;;;;4977932;28;20062;-69
2021/01/31 11:55:01;;;;;;;2.38;1.00;;;12.20;96.70;;;;;;4978484;28;20039;-70
2021/01/31 11:57:29;;;;;;;5.72;3.40;;;12.30;96.70;;;;;;4971421;28;20038;-71
2021/01/31 11:59:56;;;;;;;6.85;3.88;;;12.50;96.70;;;;;;4980899;28;20153;-70
2021/01/31 12:02:24;;;;;;;3.92;2.35;;;12.60;96.70;;;;;;4974787;28;20072;-70
2021/01/31 12:04:52;;;;;;;5.88;3.92;;;12.80;96.70;;;;;;4977909;28;20442;-71
2021/01/31 12:07:20;;;;;;;2.55;1.85;;;12.90;96.70;;;;;;4976236;28;20409;-70
2021/01/31 12:09:47;;;;;;;2.58;1.90;;;13.00;96.70;;;;;;4976525;28;20386;-70
2021/01/31 12:12:15;;;;;;;1.98;1.48;;;13.10;96.70;;;;;;4964853;28;20527;-71
2021/01/31 12:14:43;;;;;;;2.45;1.00;;;13.20;96.70;;;;;;4992293;28;20107;-69
2021/01/31 12:17:11;;;;;;;1.65;1.23;;;13.20;96.70;;;;;;4980230;28;20056;-71
2021/01/31 12:19:38;;;;;;;1.75;0.90;;;13.30;96.70;;;;;;4971531;28;20042;-70
2021/01/31 12:22:23;;;;;;;1.20;0.60;;;13.30;96.70;;;;;;4990900;28;20112;-77
2021/01/31 12:24:50;;;;;;;1.25;0.90;;;13.40;96.70;;;;;;4977575;28;20038;-77
2021/01/31 12:27:19;;;;;;;2.22;1.08;;;13.40;96.70;;;;;;4977276;28;20054;-75
2021/01/31 12:29:48;;;;;;;1.65;1.02;;;13.50;96.70;;;;;;4963641;28;20530;-76
2021/01/31 12:32:15;;;;;;;2.10;1.42;;;13.40;96.70;;;;;;4976141;28;20416;-70
2021/01/31 12:34:44;;;;;;;2.72;1.50;;;13.30;96.70;;;;;;4974039;28;20089;-74
2021/01/31 12:37:11;;;;;;;2.42;1.63;;;13.30;96.70;;;;;;4992882;28;20042;-72
2021/01/31 12:39:40;;;;;;;2.33;1.80;;;13.30;96.70;;;;;;4967864;28;20112;-72
2021/01/31 12:42:09;;;;;;;1.60;1.30;;;13.30;96.70;;;;;;4980053;28;20125;-74
2021/01/31 12:44:37;;;;;;;31.58;24.15;;;13.20;96.70;;;;;;4974218;28;20046;-71
2021/01/31 12:47:04;;;;;;;13.10;9.82;;;13.30;96.70;;;;;;4978249;28;20129;-70
2021/01/31 12:49:32;;;;;;;12.13;6.43;;;13.30;96.70;;;;;;4977391;28;20045;-72
2021/01/31 12:52:00;;;;;;;4.50;3.00;;;13.40;96.70;;;;;;4976432;28;20047;-71
2021/01/31 12:54:27;;;;;;;3.58;2.90;;;13.40;96.70;;;;;;4960850;28;20061;-72
2021/01/31 12:56:56;;;;;;;5.63;3.92;;;13.40;96.70;;;;;;4978882;28;20382;-69
2021/01/31 12:59:23;;;;;;;3.17;2.22;;;13.50;96.70;;;;;;4969175;28;20098;-69
2021/01/31 13:01:51;;;;;;;2.65;1.60;;;13.60;96.70;;;;;;4977769;28;20034;-70
2021/01/31 13:04:18;;;;;;;1.98;1.17;;;13.60;96.70;;;;;;4977367;28;20034;-70
2021/01/31 13:06:45;;;;;;;2.03;1.50;;;13.60;96.70;;;;;;4977280;28;20090;-71
2021/01/31 13:09:13;;;;;;;3.13;2.03;;;13.60;96.70;;;;;;4978410;28;20306;-72
2021/01/31 13:11:40;;;;;;;3.63;1.77;;;13.60;96.70;;;;;;4978438;28;20466;-71
2021/01/31 13:14:09;;;;;;;2.42;1.98;;;13.50;96.70;;;;;;4974525;28;20041;-70